Time;durP1;ratioP1;P1;durP2;ratioP2;P2;SDS_P1;SDS_P2;PMS_P1;PMS_P2;Temp;Humidity;BMP_temperature;BMP_pressure;BME280_temperature;BME280_humidity;BME280_pressure;Samples;Min_cycle;Max_cycle;Signal;HPM_P1;HPM_P2
2022/01/15 00:01:27;;;;;;;;;;;4.50;99.90;;;;;;5027063;28;19959;-70
2022/01/15 00:03:52;;;;;;;;;;;4.40;99.90;;;;;;5028106;28;19924;-70
2022/01/15 00:06:18;;;;;;;;;;;4.30;99.90;;;;;;5028808;28;19917;-69
2022/01/15 00:08:43;;;;;;;;;;;4.30;99.90;;;;;;5029732;28;20197;-70
2022/01/15 00:11:09;;;;;;;;;;;4.30;99.90;;;;;;5029585;28;19913;-69
2022/01/15 00:13:35;;;;;;;;;;;4.40;99.90;;;;;;5026029;28;20602;-70
2022/01/15 00:16:10;;;;;;;;;;;4.30;99.90;;;;;;5024048;28;19920;-69
2022/01/15 00:18:48;;;;;;;;;;;4.20;99.90;;;;;;5041203;28;19916;-69
2022/01/15 00:21:14;;;;;;;;;;;4.20;99.90;;;;;;5048243;28;19913;-69
2022/01/15 00:23:40;;;;;;;;;;;4.20;99.90;;;;;;5044196;28;19918;-69
2022/01/15 00:26:06;;;;;;;;;;;4.10;99.90;;;;;;5046464;28;19917;-70
2022/01/15 00:28:32;;;;;;;;;;;4.10;99.90;;;;;;5040434;28;19909;-69
2022/01/15 00:30:57;;;;;;;;;;;4.10;99.90;;;;;;5019258;28;19928;-69
2022/01/15 00:33:24;;;;;;;;;;;4.10;99.90;;;;;;5008165;28;19956;-69
2022/01/15 00:35:49;;;;;;;;;;;4.10;99.90;;;;;;5014034;28;19948;-70
2022/01/15 00:38:15;;;;;;;;;;;4.20;99.90;;;;;;5011819;28;19910;-69
2022/01/15 00:40:41;;;;;;;;;;;4.20;99.90;;;;;;5008607;28;19924;-69
2022/01/15 00:43:06;;;;;;;;;;;4.10;99.90;;;;;;5023306;28;19914;-69
2022/01/15 00:45:33;;;;;;;;;;;4.10;99.90;;;;;;5026649;28;19924;-69
2022/01/15 00:47:59;;;;;;;;;;;4.10;99.90;;;;;;5023590;28;19910;-75
2022/01/15 00:50:24;;;;;;;;;;;4.20;99.90;;;;;;5004448;28;20369;-69
2022/01/15 00:52:50;;;;;;;;;;;4.10;99.90;;;;;;5005195;28;19964;-70
2022/01/15 00:55:17;;;;;;;;;;;4.00;99.90;;;;;;5015854;28;19914;-70
2022/01/15 00:57:42;;;;;;;;;;;4.00;99.90;;;;;;5019021;28;19921;-71
2022/01/15 01:00:09;;;;;;;;;;;4.10;99.90;;;;;;5006963;28;19918;-69
2022/01/15 01:02:35;;;;;;;;;;;4.00;99.90;;;;;;4995417;28;19945;-69
2022/01/15 01:05:00;;;;;;;;;;;4.00;99.90;;;;;;5003791;28;20103;-70
2022/01/15 01:07:26;;;;;;;;;;;4.00;99.90;;;;;;5008421;28;19913;-70
2022/01/15 01:21:03;;;;;;;;;;;4.00;99.90;;;;;;5006379;28;20331;-71
2022/01/15 01:23:12;;;;;;;;;;;4.00;99.90;;;;;;5003986;28;19933;-70
2022/01/15 01:25:45;;;;;;;;;;;3.80;99.90;;;;;;5005269;28;19914;-71
2022/01/15 01:28:16;;;;;;;;;;;3.80;99.90;;;;;;5006804;28;19917;-72
2022/01/15 01:30:55;;;;;;;;;;;3.70;99.90;;;;;;5022134;28;20031;-72
2022/01/15 01:36:19;;;;;;;;;;;3.80;99.90;;;;;;5013370;28;19939;-74
2022/01/15 01:38:52;;;;;;;;;;;3.70;99.90;;;;;;5026004;28;20234;-70
2022/01/15 01:41:20;;;;;;;;;;;3.70;99.90;;;;;;5024583;28;19913;-69
2022/01/15 01:43:50;;;;;;;;;;;3.70;99.90;;;;;;5026603;28;20290;-71
2022/01/15 01:46:22;;;;;;;;;;;3.60;99.90;;;;;;5009078;28;19964;-69
2022/01/15 01:48:48;;;;;;;;;;;3.60;99.90;;;;;;5026702;28;20318;-70
2022/01/15 01:51:21;;;;;;;;;;;3.70;99.90;;;;;;5026811;28;19928;-69
2022/01/15 01:53:47;;;;;;;;;;;3.60;99.90;;;;;;5008398;28;19917;-69
2022/01/15 01:56:12;;;;;;;;;;;3.60;99.90;;;;;;5008244;28;20267;-70
2022/01/15 01:58:38;;;;;;;;;;;3.50;99.90;;;;;;5010061;28;20388;-68
2022/01/15 02:01:03;;;;;;;;;;;3.50;99.90;;;;;;5024852;28;19915;-69
2022/01/15 02:03:29;;;;;;;;;;;3.60;99.90;;;;;;5001304;28;19921;-70
2022/01/15 02:05:54;;;;;;;;;;;3.60;99.90;;;;;;5018529;28;19909;-69
2022/01/15 02:08:20;;;;;;;;;;;3.60;99.90;;;;;;5011372;28;19909;-70
2022/01/15 02:10:45;;;;;;;;;;;3.60;99.90;;;;;;5017689;28;19920;-73
2022/01/15 02:13:13;;;;;;;;;;;3.70;99.90;;;;;;5002230;28;19917;-70
2022/01/15 02:15:38;;;;;;;;;;;3.70;99.90;;;;;;4999269;28;20115;-70
2022/01/15 02:18:04;;;;;;;;;;;3.70;99.90;;;;;;5007379;28;20382;-74
2022/01/15 02:26:00;;;;;;;;;;;3.60;99.90;;;;;;5024764;28;19944;-72
2022/01/15 02:28:31;;;;;;;;;;;3.50;99.90;;;;;;5020918;28;19909;-71
2022/01/15 02:30:58;;;;;;;;;;;3.40;99.90;;;;;;5016718;28;19924;-73
2022/01/15 02:33:23;;;;;;;;;;;3.30;99.90;;;;;;5019910;28;20037;-70
2022/01/15 02:35:49;;;;;;;;;;;3.30;99.90;;;;;;5024355;28;20077;-68
2022/01/15 02:38:15;;;;;;;;;;;3.30;99.90;;;;;;5022073;28;19905;-69
2022/01/15 02:40:41;;;;;;;;;;;3.30;99.90;;;;;;5016024;28;20247;-71
2022/01/15 02:43:11;;;;;;;;;;;3.30;99.90;;;;;;5017855;28;19924;-69
2022/01/15 02:45:41;;;;;;;;;;;3.30;99.90;;;;;;5027475;28;19977;-70
2022/01/15 02:48:10;;;;;;;;;;;3.30;99.90;;;;;;5036379;28;20406;-69
2022/01/15 02:50:35;;;;;;;;;;;3.30;99.90;;;;;;5031900;28;19936;-69
2022/01/15 02:53:02;;;;;;;;;;;3.30;99.90;;;;;;5038860;28;19920;-69
2022/01/15 02:55:27;;;;;;;;;;;3.40;99.90;;;;;;5039561;28;19897;-70
2022/01/15 02:57:53;;;;;;;;;;;3.50;99.90;;;;;;5025324;28;19913;-70
2022/01/15 03:00:18;;;;;;;;;;;3.40;99.90;;;;;;5014316;28;19916;-70
2022/01/15 03:02:44;;;;;;;;;;;3.30;99.90;;;;;;5047469;28;20582;-69
2022/01/15 03:05:09;;;;;;;;;;;3.30;99.90;;;;;;5027169;28;19936;-70
2022/01/15 03:07:36;;;;;;;;;;;3.30;99.90;;;;;;5040783;28;20038;-70
2022/01/15 03:10:02;;;;;;;;;;;3.20;99.90;;;;;;5028948;28;20220;-68
2022/01/15 03:12:28;;;;;;;;;;;3.10;99.90;;;;;;5029837;28;19928;-71
2022/01/15 03:14:59;;;;;;;;;;;3.20;99.90;;;;;;5028532;28;19909;-68
2022/01/15 03:17:24;;;;;;;;;;;3.20;99.90;;;;;;5025877;28;19936;-70
2022/01/15 03:19:50;;;;;;;;;;;3.10;99.90;;;;;;5025782;28;20386;-69
2022/01/15 03:22:15;;;;;;;;;;;3.00;99.90;;;;;;5025393;28;19940;-68
2022/01/15 03:24:41;;;;;;;;;;;3.10;99.90;;;;;;5025638;28;19933;-71
2022/01/15 03:27:06;;;;;;;;;;;3.10;99.90;;;;;;5021075;28;19913;-70
2022/01/15 03:29:32;;;;;;;;;;;3.20;99.90;;;;;;5025007;28;20497;-70
2022/01/15 03:31:58;;;;;;;;;;;3.20;99.90;;;;;;5025097;28;19913;-69
2022/01/15 03:34:23;;;;;;;;;;;3.20;99.90;;;;;;5035708;28;19909;-71
2022/01/15 03:36:49;;;;;;;;;;;3.20;99.90;;;;;;5038094;28;20040;-70
2022/01/15 03:39:14;;;;;;;;;;;3.10;99.90;;;;;;5027182;28;20370;-70
2022/01/15 03:41:40;;;;;;;;;;;3.20;99.90;;;;;;5008814;28;19929;-70
2022/01/15 03:44:05;;;;;;;;;;;3.20;99.90;;;;;;5025387;28;19913;-69
2022/01/15 03:46:31;;;;;;;;;;;3.20;99.90;;;;;;5024760;28;20347;-69
2022/01/15 03:48:56;;;;;;;;;;;3.20;99.90;;;;;;5024706;28;19913;-67
2022/01/15 03:51:21;;;;;;;;;;;3.20;99.90;;;;;;5024905;28;19913;-70
2022/01/15 03:53:47;;;;;;;;;;;3.20;99.90;;;;;;5026025;28;19947;-70
2022/01/15 03:56:12;;;;;;;;;;;3.20;99.90;;;;;;5042231;28;20408;-70
2022/01/15 03:58:38;;;;;;;;;;;3.10;99.90;;;;;;5048839;28;20046;-70
2022/01/15 04:01:03;;;;;;;;;;;3.20;99.90;;;;;;5045537;28;19909;-69
2022/01/15 04:03:29;;;;;;;;;;;3.30;99.90;;;;;;5041831;28;20390;-70
2022/01/15 04:05:54;;;;;;;;;;;3.20;99.90;;;;;;5008253;28;20381;-69
2022/01/15 04:08:20;;;;;;;;;;;3.20;99.90;;;;;;5023472;28;20016;-67
2022/01/15 04:10:45;;;;;;;;;;;3.20;99.90;;;;;;5023759;28;19916;-70
2022/01/15 04:13:15;;;;;;;;;;;3.20;99.90;;;;;;5024407;28;19917;-70
2022/01/15 04:15:40;;;;;;;;;;;3.10;99.90;;;;;;5024650;28;20380;-69
2022/01/15 04:18:06;;;;;;;;;;;3.10;99.90;;;;;;5023069;28;20365;-72
2022/01/15 04:20:31;;;;;;;;;;;3.20;99.90;;;;;;5023999;28;19935;-71
2022/01/15 04:22:57;;;;;;;;;;;3.20;99.90;;;;;;5024403;28;20001;-75
2022/01/15 04:25:23;;;;;;;;;;;3.20;99.90;;;;;;5024781;28;19913;-69
2022/01/15 04:27:48;;;;;;;;;;;3.20;99.90;;;;;;5033578;28;19967;-69
2022/01/15 04:30:15;;;;;;;;;;;3.30;99.90;;;;;;5045247;28;19916;-69
2022/01/15 04:32:40;;;;;;;;;;;3.30;99.90;;;;;;5032370;28;19932;-69
2022/01/15 04:35:06;;;;;;;;;;;3.30;99.90;;;;;;5028915;28;19936;-70
2022/01/15 04:37:42;;;;;;;;;;;3.30;99.90;;;;;;5009932;28;19956;-69
2022/01/15 04:40:08;;;;;;;;;;;3.20;99.90;;;;;;5010188;28;19913;-70
2022/01/15 04:42:34;;;;;;;;;;;3.10;99.90;;;;;;5027857;28;20015;-69
2022/01/15 04:45:01;;;;;;;;;;;3.20;99.90;;;;;;5010821;28;20258;-69
2022/01/15 04:47:26;;;;;;;;;;;3.20;99.90;;;;;;5030353;28;20012;-70
2022/01/15 04:49:54;;;;;;;;;;;3.20;99.90;;;;;;5010929;28;20354;-70
2022/01/15 04:52:21;;;;;;;;;;;3.10;99.90;;;;;;5008931;28;20348;-69
2022/01/15 04:54:46;;;;;;;;;;;3.10;99.90;;;;;;5027226;28;19909;-68
2022/01/15 04:57:11;;;;;;;;;;;3.00;99.90;;;;;;5028039;28;19963;-68
2022/01/15 04:59:37;;;;;;;;;;;3.00;99.90;;;;;;5027101;28;19917;-70
2022/01/15 05:02:02;;;;;;;;;;;3.00;99.90;;;;;;5028962;28;19913;-70
2022/01/15 05:04:28;;;;;;;;;;;3.00;99.90;;;;;;5027823;28;19909;-70
2022/01/15 05:06:53;;;;;;;;;;;3.00;99.90;;;;;;5029566;28;19960;-70
2022/01/15 05:09:19;;;;;;;;;;;2.90;99.90;;;;;;5029992;28;20301;-70
2022/01/15 05:11:55;;;;;;;;;;;2.90;99.90;;;;;;5032376;28;19971;-70
2022/01/15 05:14:20;;;;;;;;;;;2.90;99.90;;;;;;5031215;28;19917;-69
2022/01/15 05:16:46;;;;;;;;;;;3.00;99.90;;;;;;5029839;28;19989;-70
2022/01/15 05:19:12;;;;;;;;;;;3.00;99.90;;;;;;5019114;28;19916;-70
2022/01/15 05:21:38;;;;;;;;;;;3.00;99.90;;;;;;4996654;28;19940;-69
2022/01/15 05:24:04;;;;;;;;;;;3.00;99.90;;;;;;5016320;28;19917;-70
2022/01/15 05:26:29;;;;;;;;;;;3.00;99.90;;;;;;5015794;28;19909;-69
2022/01/15 05:28:56;;;;;;;;;;;3.00;99.90;;;;;;5015980;28;20013;-73
2022/01/15 05:31:22;;;;;;;;;;;3.10;99.90;;;;;;5015288;28;20215;-72
2022/01/15 05:33:48;;;;;;;;;;;3.00;99.90;;;;;;5006532;28;19948;-69
2022/01/15 05:36:13;;;;;;;;;;;3.10;99.90;;;;;;5018896;28;19983;-70
2022/01/15 05:38:39;;;;;;;;;;;3.10;99.90;;;;;;5021670;28;20012;-71
2022/01/15 05:41:04;;;;;;;;;;;3.10;99.90;;;;;;5019785;28;19916;-71
2022/01/15 05:43:30;;;;;;;;;;;3.00;99.90;;;;;;5018363;28;19913;-70
2022/01/15 05:45:55;;;;;;;;;;;3.00;99.90;;;;;;5018249;28;20370;-69
2022/01/15 05:48:21;;;;;;;;;;;3.00;99.90;;;;;;5015889;28;19944;-69
2022/01/15 05:50:47;;;;;;;;;;;3.10;99.90;;;;;;5017108;28;20061;-69
2022/01/15 05:53:12;;;;;;;;;;;3.10;99.90;;;;;;5015360;28;20382;-69
2022/01/15 05:55:38;;;;;;;;;;;3.00;99.90;;;;;;5017245;28;20617;-69
2022/01/15 05:58:03;;;;;;;;;;;3.10;99.90;;;;;;5018875;28;19959;-72
2022/01/15 06:00:29;;;;;;;;;;;2.90;99.90;;;;;;5020785;28;20056;-71
2022/01/15 06:02:54;;;;;;;;;;;3.00;99.90;;;;;;5038674;28;19913;-69
2022/01/15 06:05:20;;;;;;;;;;;3.00;99.90;;;;;;5030295;28;19936;-70
2022/01/15 06:07:45;;;;;;;;;;;2.90;99.90;;;;;;5025765;28;19920;-71
2022/01/15 06:10:11;;;;;;;;;;;2.90;99.90;;;;;;5015509;28;19938;-68
2022/01/15 06:12:42;;;;;;;;;;;2.90;99.90;;;;;;5022883;28;19924;-73
2022/01/15 06:15:09;;;;;;;;;;;3.00;99.90;;;;;;4995905;28;19909;-71
2022/01/15 06:17:34;;;;;;;;;;;3.00;99.90;;;;;;5019257;28;20190;-70
2022/01/15 06:20:00;;;;;;;;;;;3.00;99.90;;;;;;5025682;28;20058;-74
2022/01/15 06:22:25;;;;;;;;;;;3.10;99.90;;;;;;5046384;28;19916;-69
2022/01/15 06:24:51;;;;;;;;;;;3.00;99.90;;;;;;5046824;28;19913;-70
2022/01/15 06:27:19;;;;;;;;;;;3.00;99.90;;;;;;5035308;28;19920;-69
2022/01/15 06:29:45;;;;;;;;;;;3.00;99.90;;;;;;5017179;28;19960;-68
2022/01/15 06:32:10;;;;;;;;;;;3.00;99.90;;;;;;5031501;28;19917;-68
2022/01/15 06:34:36;;;;;;;;;;;3.00;99.90;;;;;;5025468;28;19913;-70
2022/01/15 06:37:01;;;;;;;;;;;3.00;99.90;;;;;;4993083;28;19913;-69
2022/01/15 06:39:27;;;;;;;;;;;3.00;99.90;;;;;;5018847;28;19909;-68
2022/01/15 06:41:52;;;;;;;;;;;3.00;99.90;;;;;;5022061;28;19932;-70
2022/01/15 06:44:18;;;;;;;;;;;3.10;99.90;;;;;;5014414;28;19928;-69
2022/01/15 06:46:43;;;;;;;;;;;3.00;99.90;;;;;;5018212;28;19918;-70
2022/01/15 06:49:10;;;;;;;;;;;2.90;99.90;;;;;;5037581;28;19909;-71
2022/01/15 06:51:35;;;;;;;;;;;2.90;99.90;;;;;;5022800;28;20440;-69
2022/01/15 06:54:01;;;;;;;;;;;3.00;99.90;;;;;;5008745;28;19921;-70
2022/01/15 06:56:27;;;;;;;;;;;3.10;99.90;;;;;;5018619;28;19913;-70
2022/01/15 06:58:53;;;;;;;;;;;3.10;99.90;;;;;;5020792;28;20014;-70
2022/01/15 07:01:18;;;;;;;;;;;3.20;99.90;;;;;;5020603;28;20488;-69
2022/01/15 07:03:44;;;;;;;;;;;3.10;99.90;;;;;;5023748;28;19948;-70
2022/01/15 07:06:09;;;;;;;;;;;3.00;99.90;;;;;;5022129;28;19909;-70
2022/01/15 07:08:35;;;;;;;;;;;3.00;99.90;;;;;;5034547;28;19913;-70
2022/01/15 07:11:00;;;;;;;;;;;3.00;99.90;;;;;;5032431;28;19913;-70
2022/01/15 07:13:26;;;;;;;;;;;3.00;99.90;;;;;;5045865;28;20015;-69
2022/01/15 07:15:52;;;;;;;;;;;3.00;99.90;;;;;;5045248;28;19913;-72
2022/01/15 07:18:18;;;;;;;;;;;3.00;99.90;;;;;;5034688;28;19924;-68
2022/01/15 07:20:44;;;;;;;;;;;3.10;99.90;;;;;;5029660;28;20130;-67
2022/01/15 07:23:10;;;;;;;;;;;3.10;99.90;;;;;;5027555;28;19913;-71
2022/01/15 07:25:35;;;;;;;;;;;3.00;99.90;;;;;;5026921;28;19917;-74
2022/01/15 07:28:01;;;;;;;;;;;3.10;99.90;;;;;;5026569;28;20103;-69
2022/01/15 07:30:26;;;;;;;;;;;3.10;99.90;;;;;;5028339;28;19917;-69
2022/01/15 07:32:52;;;;;;;;;;;3.10;99.90;;;;;;5015585;28;19917;-69
2022/01/15 07:35:18;;;;;;;;;;;3.10;99.90;;;;;;5015386;28;19917;-69
2022/01/15 07:37:43;;;;;;;;;;;3.00;99.90;;;;;;5012561;28;19918;-69
2022/01/15 07:40:10;;;;;;;;;;;2.90;99.90;;;;;;5011073;28;19926;-70
2022/01/15 07:42:37;;;;;;;;;;;2.90;99.90;;;;;;5012378;28;19914;-69
2022/01/15 07:45:03;;;;;;;;;;;2.90;99.90;;;;;;5006774;28;19924;-69
2022/01/15 07:47:29;;;;;;;;;;;2.90;99.90;;;;;;5000330;28;19925;-70
2022/01/15 07:49:54;;;;;;;;;;;2.90;99.90;;;;;;5000931;28;20023;-69
2022/01/15 07:52:20;;;;;;;;;;;2.90;99.90;;;;;;4998910;28;19917;-69
2022/01/15 07:54:45;;;;;;;;;;;3.00;99.90;;;;;;4986247;28;19971;-69
2022/01/15 07:57:11;;;;;;;;;;;3.00;99.90;;;;;;5004141;28;20630;-70
2022/01/15 07:59:36;;;;;;;;;;;3.00;99.90;;;;;;5004306;28;20226;-71
2022/01/15 08:02:03;;;;;;;;;;;3.00;99.90;;;;;;4995741;28;19913;-70
2022/01/15 08:04:28;;;;;;;;;;;2.90;99.90;;;;;;5006494;28;19914;-69
2022/01/15 08:06:54;;;;;;;;;;;3.00;99.90;;;;;;5006046;28;20051;-69
2022/01/15 08:09:19;;;;;;;;;;;3.00;99.90;;;;;;4999012;28;19955;-75
2022/01/15 08:11:45;;;;;;;;;;;3.00;99.90;;;;;;5006095;28;19970;-69
2022/01/15 08:14:10;;;;;;;;;;;3.00;99.90;;;;;;5011341;28;20273;-71
2022/01/15 08:16:36;;;;;;;;;;;3.00;99.90;;;;;;5014352;28;20159;-70
2022/01/15 08:19:01;;;;;;;;;;;2.90;99.90;;;;;;5012789;28;19925;-70
2022/01/15 08:21:27;;;;;;;;;;;3.00;99.90;;;;;;5008347;28;19914;-70
2022/01/15 08:23:52;;;;;;;;;;;3.00;99.90;;;;;;5005686;28;19968;-71
2022/01/15 08:26:18;;;;;;;;;;;3.00;99.90;;;;;;4982528;28;20362;-70
2022/01/15 08:28:44;;;;;;;;;;;2.90;99.90;;;;;;5004156;28;19913;-70
2022/01/15 08:31:10;;;;;;;;;;;2.90;99.90;;;;;;5025730;28;20260;-70
2022/01/15 08:33:35;;;;;;;;;;;2.90;99.90;;;;;;5027969;28;19921;-70
2022/01/15 08:36:01;;;;;;;;;;;2.90;99.90;;;;;;5024843;28;20319;-69
2022/01/15 08:38:26;;;;;;;;;;;2.90;99.90;;;;;;5025363;28;19913;-70
2022/01/15 08:40:52;;;;;;;;;;;2.90;99.90;;;;;;5007655;28;19913;-69
2022/01/15 08:43:17;;;;;;;;;;;2.90;99.90;;;;;;5026122;28;19939;-69
2022/01/15 08:45:43;;;;;;;;;;;2.90;99.90;;;;;;5029516;28;19913;-70
2022/01/15 08:48:09;;;;;;;;;;;2.90;99.90;;;;;;5034030;28;19920;-70
2022/01/15 08:50:36;;;;;;;;;;;2.90;99.90;;;;;;5029250;28;19932;-69
2022/01/15 08:53:06;;;;;;;;;;;2.80;99.90;;;;;;5031941;28;19917;-69
2022/01/15 08:55:35;;;;;;;;;;;2.80;99.90;;;;;;5034279;28;19913;-70
2022/01/15 08:58:01;;;;;;;;;;;2.80;99.90;;;;;;5032638;28;19955;-69
2022/01/15 09:00:28;;;;;;;;;;;2.90;99.90;;;;;;5029068;28;20351;-68
2022/01/15 09:02:54;;;;;;;;;;;2.90;99.90;;;;;;5026649;28;20011;-69
2022/01/15 09:05:19;;;;;;;;;;;2.90;99.90;;;;;;5027397;28;19913;-70
2022/01/15 09:07:45;;;;;;;;;;;3.00;99.90;;;;;;5027301;28;20282;-70
2022/01/15 09:10:10;;;;;;;;;;;3.00;99.90;;;;;;5027896;28;19913;-69
2022/01/15 09:12:36;;;;;;;;;;;2.90;99.90;;;;;;5026508;28;20119;-69
2022/01/15 09:15:02;;;;;;;;;;;2.80;99.90;;;;;;5010995;28;19914;-70
2022/01/15 09:17:28;;;;;;;;;;;2.80;99.90;;;;;;4998489;28;19937;-72
2022/01/15 09:19:54;;;;;;;;;;;2.90;99.90;;;;;;5013282;28;19949;-71
2022/01/15 09:22:20;;;;;;;;;;;2.90;99.90;;;;;;5030365;28;19909;-69
2022/01/15 09:24:46;;;;;;;;;;;3.00;99.90;;;;;;5017468;28;19913;-69
2022/01/15 09:30:15;;;;;;;;;;;3.00;99.90;;;;;;5016604;28;19979;-70
2022/01/15 09:32:43;;;;;;;;;;;3.00;99.90;;;;;;5001817;28;19922;-70
2022/01/15 09:35:08;;;;;;;;;;;3.00;99.90;;;;;;5000568;28;19918;-72
2022/01/15 09:37:34;;;;;;;;;;;2.90;99.90;;;;;;5015406;28;19924;-71
2022/01/15 09:40:00;;;;;;;;;;;2.90;99.90;;;;;;5020297;28;19913;-70
2022/01/15 09:42:26;;;;;;;;;;;3.00;99.90;;;;;;5002384;28;19918;-71
2022/01/15 09:44:52;;;;;;;;;;;2.90;99.90;;;;;;5016136;28;20327;-70
2022/01/15 09:47:20;;;;;;;;;;;3.00;99.90;;;;;;5008680;28;19917;-69
2022/01/15 09:49:46;;;;;;;;;;;3.00;99.90;;;;;;5003755;28;20004;-70
2022/01/15 09:52:12;;;;;;;;;;;3.00;99.90;;;;;;5018814;28;20442;-70
2022/01/15 09:54:38;;;;;;;;;;;3.00;99.90;;;;;;4999322;28;19909;-71
2022/01/15 09:57:04;;;;;;;;;;;3.10;99.90;;;;;;5022581;28;20270;-70
2022/01/15 09:59:30;;;;;;;;;;;3.10;99.90;;;;;;5038153;28;19920;-72
2022/01/15 10:01:57;;;;;;;;;;;3.10;99.90;;;;;;5020029;28;20683;-69
2022/01/15 10:04:23;;;;;;;;;;;3.10;99.90;;;;;;5015007;28;19917;-70
2022/01/15 10:07:07;;;;;;;;;;;3.10;99.90;;;;;;5011640;28;20161;-69
2022/01/15 10:09:32;;;;;;;;;;;3.10;99.90;;;;;;5025574;28;19976;-69
2022/01/15 10:11:58;;;;;;;;;;;3.10;99.90;;;;;;5029987;28;19955;-70
2022/01/15 10:14:26;;;;;;;;;;;3.00;99.90;;;;;;5021350;28;19919;-73
2022/01/15 10:16:52;;;;;;;;;;;3.00;99.90;;;;;;5015314;28;19959;-73
2022/01/15 10:19:37;;;;;;;;;;;3.00;99.90;;;;;;5008330;28;19917;-72
2022/01/15 10:22:14;;;;;;;;;;;3.10;99.90;;;;;;5010333;28;19914;-70
2022/01/15 10:24:40;;;;;;;;;;;3.10;99.90;;;;;;5028842;28;19913;-70
2022/01/15 10:27:18;;;;;;;;;;;3.10;99.90;;;;;;5009279;28;19995;-69
2022/01/15 10:29:58;;;;;;;;;;;3.20;99.90;;;;;;5019497;28;19926;-70
2022/01/15 10:32:25;;;;;;;;;;;3.30;99.90;;;;;;5007167;28;19951;-69
2022/01/15 10:34:51;;;;;;;;;;;3.30;99.90;;;;;;5000615;28;20405;-69
2022/01/15 10:37:18;;;;;;;;;;;3.20;99.90;;;;;;4990651;28;19941;-69
2022/01/15 10:39:57;;;;;;;;;;;3.20;99.90;;;;;;5013413;28;19924;-69
2022/01/15 10:42:26;;;;;;;;;;;3.10;99.90;;;;;;5014509;28;19923;-69
2022/01/15 10:44:52;;;;;;;;;;;2.80;99.90;;;;;;5006318;28;19921;-69
2022/01/15 10:47:19;;;;;;;;;;;2.80;99.90;;;;;;5016200;28;19917;-69
2022/01/15 10:49:44;;;;;;;;;;;2.80;99.90;;;;;;4994946;28;20277;-71
2022/01/15 10:52:11;;;;;;;;;;;2.80;99.90;;;;;;5018357;28;19939;-70
2022/01/15 10:54:57;;;;;;;;;;;2.90;99.90;;;;;;5012734;28;19975;-69
2022/01/15 10:57:24;;;;;;;;;;;3.10;99.90;;;;;;5015346;28;19960;-67
2022/01/15 10:59:58;;;;;;;;;;;3.20;99.90;;;;;;5016670;28;19917;-72
2022/01/15 11:02:24;;;;;;;;;;;3.30;99.90;;;;;;5018921;28;19916;-69
2022/01/15 11:04:49;;;;;;;;;;;3.20;99.90;;;;;;5007309;28;20286;-69
2022/01/15 11:07:16;;;;;;;;;;;3.10;99.90;;;;;;5015588;28;19975;-69
2022/01/15 11:09:45;;;;;;;;;;;3.10;99.90;;;;;;4994494;28;19913;-69
2022/01/15 11:12:11;;;;;;;;;;;3.20;99.90;;;;;;5016587;28;19921;-68
2022/01/15 11:14:37;;;;;;;;;;;3.20;99.90;;;;;;5013376;28;19969;-68
2022/01/15 11:17:03;;;;;;;;;;;3.20;99.90;;;;;;5019492;28;20016;-70
2022/01/15 11:19:30;;;;;;;;;;;3.10;99.90;;;;;;5014212;28;20303;-69
2022/01/15 11:21:56;;;;;;;;;;;3.20;99.90;;;;;;5012951;28;20008;-69
2022/01/15 11:24:22;;;;;;;;;;;3.20;99.90;;;;;;5017462;28;20373;-69
2022/01/15 11:26:51;;;;;;;;;;;3.20;99.90;;;;;;5016503;28;19921;-70
2022/01/15 11:29:18;;;;;;;;;;;3.20;99.90;;;;;;5018869;28;19987;-68
2022/01/15 11:31:44;;;;;;;;;;;3.10;99.90;;;;;;5014629;28;19975;-75
2022/01/15 11:34:11;;;;;;;;;;;3.10;99.90;;;;;;5040856;28;20176;-70
2022/01/15 11:36:37;;;;;;;;;;;3.10;99.90;;;;;;5010457;28;19944;-69
2022/01/15 11:39:09;;;;;;;;;;;2.90;99.90;;;;;;4999408;28;20280;-69
2022/01/15 11:41:41;;;;;;;;;;;2.80;99.90;;;;;;5004274;28;19913;-70
2022/01/15 11:44:35;;;;;;;;;;;2.80;99.90;;;;;;5018941;28;20357;-74
2022/01/15 11:47:15;;;;;;;;;;;2.90;99.90;;;;;;5019142;28;19988;-70
2022/01/15 11:49:45;;;;;;;;;;;3.10;99.90;;;;;;5031625;28;19998;-72
2022/01/15 11:52:14;;;;;;;;;;;2.90;99.90;;;;;;5041563;28;19917;-67
2022/01/15 11:55:02;;;;;;;;;;;3.00;99.90;;;;;;5025565;28;19971;-69
2022/01/15 11:57:35;;;;;;;;;;;3.00;99.90;;;;;;5027761;28;19909;-70
2022/01/15 12:00:02;;;;;;;;;;;3.00;99.90;;;;;;5022454;28;19914;-71
2022/01/15 12:02:29;;;;;;;;;;;2.90;99.90;;;;;;5025358;28;20267;-70
2022/01/15 12:04:55;;;;;;;;;;;2.80;99.90;;;;;;5019607;28;19997;-70
2022/01/15 12:07:22;;;;;;;;;;;2.80;99.90;;;;;;5018871;28;20003;-70
2022/01/15 12:09:49;;;;;;;;;;;2.90;99.90;;;;;;5010462;28;20350;-72
2022/01/15 12:12:17;;;;;;;;;;;3.00;99.90;;;;;;5020220;28;19918;-71
2022/01/15 12:14:59;;;;;;;;;;;3.00;99.90;;;;;;5004244;28;19927;-70
2022/01/15 12:17:29;;;;;;;;;;;2.90;99.90;;;;;;5017696;28;19978;-71
2022/01/15 12:19:55;;;;;;;;;;;2.80;99.90;;;;;;5035020;28;19923;-70
2022/01/15 12:22:40;;;;;;;;;;;2.90;99.90;;;;;;5033672;28;20176;-69
2022/01/15 12:25:05;;;;;;;;;;;3.00;99.90;;;;;;5018737;28;19909;-68
2022/01/15 12:27:31;;;;;;;;;;;3.00;99.90;;;;;;5017789;28;20425;-69
2022/01/15 12:30:03;;;;;;;;;;;3.00;99.90;;;;;;5022359;28;20004;-70
2022/01/15 12:32:33;;;;;;;;;;;3.00;99.90;;;;;;5032960;28;19963;-69
2022/01/15 12:34:59;;;;;;;;;;;2.80;99.90;;;;;;5033622;28;19962;-70
2022/01/15 12:37:25;;;;;;;;;;;2.80;99.90;;;;;;5034727;28;19916;-69
2022/01/15 12:39:51;;;;;;;;;;;2.90;99.90;;;;;;5032567;28;19917;-68
2022/01/15 12:42:17;;;;;;;;;;;3.00;99.90;;;;;;5029508;28;19913;-71
2022/01/15 12:44:44;;;;;;;;;;;2.90;99.90;;;;;;5031392;28;19912;-72
2022/01/15 12:47:10;;;;;;;;;;;2.80;99.90;;;;;;5033174;28;20364;-68
2022/01/15 12:49:39;;;;;;;;;;;3.00;99.90;;;;;;5033045;28;19909;-67
2022/01/15 12:52:12;;;;;;;;;;;3.20;99.90;;;;;;5028400;28;19951;-70
2022/01/15 12:54:37;;;;;;;;;;;3.20;99.90;;;;;;5030482;28;20325;-68
2022/01/15 12:57:03;;;;;;;;;;;3.20;99.90;;;;;;5030117;28;19974;-72
2022/01/15 12:59:29;;;;;;;;;;;3.10;99.90;;;;;;5029491;28;20559;-72
2022/01/15 13:01:54;;;;;;;;;;;3.00;99.90;;;;;;5030112;28;19944;-69
2022/01/15 13:04:20;;;;;;;;;;;3.00;99.90;;;;;;5030863;28;20020;-69
2022/01/15 13:06:49;;;;;;;;;;;3.00;99.90;;;;;;5029760;28;19967;-69
2022/01/15 13:09:16;;;;;;;;;;;3.00;99.90;;;;;;5031262;28;19953;-70
2022/01/15 13:11:48;;;;;;;;;;;2.90;99.90;;;;;;5029211;28;20367;-70
2022/01/15 13:14:14;;;;;;;;;;;3.00;99.90;;;;;;5026219;28;20190;-70
2022/01/15 13:16:39;;;;;;;;;;;3.00;99.90;;;;;;5028486;28;19915;-70
2022/01/15 13:19:06;;;;;;;;;;;3.10;99.90;;;;;;5029035;28;20334;-70
2022/01/15 13:21:37;;;;;;;;;;;3.20;99.90;;;;;;5029748;28;19913;-69
2022/01/15 13:24:07;;;;;;;;;;;3.20;99.90;;;;;;5032849;28;19945;-69
2022/01/15 13:26:36;;;;;;;;;;;3.20;99.90;;;;;;5025756;28;20745;-73
2022/01/15 13:29:04;;;;;;;;;;;3.20;99.90;;;;;;5024466;28;20386;-69
2022/01/15 13:31:31;;;;;;;;;;;3.20;99.90;;;;;;5006423;28;19924;-68
2022/01/15 13:34:05;;;;;;;;;;;3.20;99.90;;;;;;5023676;28;20481;-70
2022/01/15 13:36:31;;;;;;;;;;;3.20;99.90;;;;;;5027642;28;19917;-68
2022/01/15 13:38:56;;;;;;;;;;;3.20;99.90;;;;;;5040293;28;19913;-70
2022/01/15 13:41:23;;;;;;;;;;;3.20;99.90;;;;;;5042628;28;19944;-70
2022/01/15 13:43:54;;;;;;;;;;;3.40;99.90;;;;;;5023694;28;19976;-70
2022/01/15 13:46:42;;;;;;;;;;;3.40;99.90;;;;;;5045819;28;20000;-69
2022/01/15 13:49:10;;;;;;;;;;;3.50;99.90;;;;;;5020819;28;19909;-71
2022/01/15 13:54:35;;;;;;;;;;;3.30;99.90;;;;;;5008911;28;19921;-70
2022/01/15 13:57:06;;;;;;;;;;;3.30;99.90;;;;;;5019552;28;20127;-74
2022/01/15 13:59:31;;;;;;;;;;;3.30;99.90;;;;;;5032035;28;19917;-70
2022/01/15 14:01:59;;;;;;;;;;;3.30;99.90;;;;;;5015928;28;19913;-71
2022/01/15 14:04:35;;;;;;;;;;;3.20;99.90;;;;;;5033614;28;19916;-69
2022/01/15 14:07:05;;;;;;;;;;;3.30;99.90;;;;;;5034545;28;19979;-70
2022/01/15 14:09:32;;;;;;;;;;;3.30;99.90;;;;;;5033066;28;20122;-71
2022/01/15 14:12:08;;;;;;;;;;;3.30;99.90;;;;;;5013043;28;20204;-72
2022/01/15 14:14:35;;;;;;;;;;;3.30;99.90;;;;;;5013383;28;19917;-71
2022/01/15 14:17:02;;;;;;;;;;;3.50;99.90;;;;;;5013422;28;19924;-71
2022/01/15 14:22:19;;;;;;;;;;;3.50;99.90;;;;;;5029819;28;19971;-70
2022/01/15 14:24:44;;;;;;;;;;;3.50;99.90;;;;;;5013809;28;19939;-70
2022/01/15 14:27:18;;;;;;;;;;;3.60;99.90;;;;;;5031750;28;19913;-70
2022/01/15 14:29:43;;;;;;;;;;;3.60;99.90;;;;;;5020573;28;19917;-69
2022/01/15 14:32:09;;;;;;;;;;;3.60;99.90;;;;;;5030598;28;19963;-72
2022/01/15 14:34:35;;;;;;;;;;;3.60;99.90;;;;;;5032540;28;19916;-69
2022/01/15 14:37:00;;;;;;;;;;;3.50;99.90;;;;;;5030735;28;19967;-69
2022/01/15 14:39:26;;;;;;;;;;;3.50;99.90;;;;;;5032011;28;19956;-71
2022/01/15 14:41:51;;;;;;;;;;;3.50;99.90;;;;;;5029633;28;19925;-71
2022/01/15 14:44:17;;;;;;;;;;;3.60;99.90;;;;;;5031205;28;19913;-71
2022/01/15 14:46:42;;;;;;;;;;;3.60;99.90;;;;;;5034353;28;19945;-69
2022/01/15 14:49:08;;;;;;;;;;;3.60;99.90;;;;;;5034350;28;19909;-69
2022/01/15 14:51:34;;;;;;;;;;;3.60;99.90;;;;;;5030511;28;19941;-68
2022/01/15 14:53:59;;;;;;;;;;;3.60;99.90;;;;;;5030742;28;19917;-73
2022/01/15 14:56:25;;;;;;;;;;;3.70;99.90;;;;;;5036739;28;19909;-70
2022/01/15 14:58:52;;;;;;;;;;;3.70;99.90;;;;;;5039591;28;20244;-70